• vieta
  • image
  • image
  • image

Šiandien

Trečiadienis, 01 Balandis 2015

Orų prognozė

Šiauliai 3 °C
   

Orų prognozė aviacijai

[source: ADDS]
METAR
EYSA 010750Z 04004KT 010V080 9999 OVC005 03/02 Q0983 =
TAF
TAF EYSA 010500Z 0106/0115 VRB06KT 6000 OVC004 TEMPO 0106/0115 3000 SNRA =
SR / SS: 03:59 / 17:04 UTC (EYSA 2015-04-01)

Lankytojai

Mes turime 10 svečius online

tic logo lt